Time;durP1;ratioP1;P1;durP2;ratioP2;P2;SDS_P1;SDS_P2;PMS_P1;PMS_P2;Temp;Humidity;BMP_temperature;BMP_pressure;BME280_temperature;BME280_humidity;BME280_pressure;Samples;Min_cycle;Max_cycle;Signal;HPM_P1;HPM_P2
2021/07/14 00:00:30;;;;;;;;;;;;;;;-144.99;85.68;52256.50;5040845;28;19920;-60
2021/07/14 00:03:00;;;;;;;;;;;;;;;-144.99;86.00;52227.97;5045043;28;19927;-60
2021/07/14 00:05:27;;;;;;;;;;;;;;;-144.99;85.98;52197.41;5049174;28;20366;-61
2021/07/14 00:07:53;;;;;;;;;;;;;;;-144.99;86.22;52219.81;5049629;28;20374;-59
2021/07/14 00:10:24;;;;;;;;;;;;;;;-144.99;86.32;52227.97;5049151;28;19928;-59
2021/07/14 00:12:56;;;;;;;;;;;;;;;-144.99;86.40;52213.69;5048646;28;19921;-60
2021/07/14 00:23:38;;;;;;;;;;;;;;;-144.99;86.90;52219.81;5048754;28;19999;-58
2021/07/14 00:26:04;;;;;;;;;;;;;;;-144.99;87.01;52207.59;5035404;28;19928;-61
2021/07/14 00:28:33;;;;;;;;;;;;;;;-144.99;87.02;52205.53;5039464;28;19969;-60
2021/07/14 00:31:02;;;;;;;;;;;;;;;-144.99;87.14;52217.78;5046499;28;19921;-60
2021/07/14 00:33:29;;;;;;;;;;;;;;;-144.99;87.27;52207.59;5030926;28;19925;-60
2021/07/14 00:35:57;;;;;;;;;;;;;;;-144.99;87.38;52223.88;5029900;28;20375;-60
2021/07/14 00:38:24;;;;;;;;;;;;;;;-144.99;87.51;52174.97;5032091;28;19925;-60
2021/07/14 00:40:50;;;;;;;;;;;;;;;-144.99;87.57;52211.66;5032982;28;19944;-60
2021/07/14 00:43:16;;;;;;;;;;;;;;;-144.99;87.59;52227.97;5033595;28;19928;-60
2021/07/14 00:45:43;;;;;;;;;;;;;;;-144.99;87.56;52197.41;5033971;28;19921;-60
2021/07/14 00:48:11;;;;;;;;;;;;;;;-144.99;87.67;52181.09;5032865;28;20403;-60
2021/07/14 00:50:39;;;;;;;;;;;;;;;-144.99;87.68;52244.28;5032740;28;19924;-60
2021/07/14 00:53:05;;;;;;;;;;;;;;;-144.99;87.63;52179.06;5037571;28;19921;-60
2021/07/14 00:55:32;;;;;;;;;;;;;;;-144.99;87.60;52215.75;5051981;28;19932;-60
2021/07/14 00:57:58;;;;;;;;;;;;;;;-144.99;87.77;52187.19;5052427;28;20354;-60
2021/07/14 01:00:25;;;;;;;;;;;;;;;-144.99;87.77;52193.31;5050449;28;19920;-60
2021/07/14 01:02:51;;;;;;;;;;;;;;;-144.99;87.72;52223.88;5045809;28;20295;-60
2021/07/14 01:05:21;;;;;;;;;;;;;;;-144.99;87.31;52234.09;5050591;28;19925;-60
2021/07/14 01:07:50;;;;;;;;;;;;;;;-144.99;87.71;52199.44;5052530;28;19927;-59
2021/07/14 01:10:21;;;;;;;;;;;;;;;-144.99;87.83;52256.50;5052667;28;20004;-58
2021/07/14 01:12:53;;;;;;;;;;;;;;;-144.99;87.63;52225.94;5052872;28;19920;-58
2021/07/14 01:15:20;;;;;;;;;;;;;;;-144.99;87.67;52207.59;5045524;28;19931;-58
2021/07/14 01:17:49;;;;;;;;;;;;;;;-144.99;87.93;52215.75;5050615;28;19932;-58
2021/07/14 01:20:30;;;;;;;;;;;;;;;-144.99;87.89;52207.59;5044561;28;20389;-58
2021/07/14 01:23:05;;;;;;;;;;;;;;;-144.99;87.68;52191.28;5026229;28;20329;-59
2021/07/14 01:25:41;;;;;;;;;;;;;;;-144.99;87.92;52179.06;5043704;28;19921;-58
2021/07/14 01:28:09;;;;;;;;;;;;;;;-144.99;88.13;52207.59;5038983;28;20367;-58
2021/07/14 01:30:35;;;;;;;;;;;;;;;-144.99;88.24;52236.13;5038030;28;19921;-58
2021/07/14 01:33:03;;;;;;;;;;;;;;;-144.99;88.13;52215.75;5031760;28;19928;-58
2021/07/14 01:35:31;;;;;;;;;;;;;;;-144.99;88.32;52211.66;5032397;28;19931;-57
2021/07/14 01:38:01;;;;;;;;;;;;;;;-144.99;88.42;52199.44;5032406;28;19948;-58
2021/07/14 01:40:29;;;;;;;;;;;;;;;-144.99;88.53;52227.97;5031687;28;19921;-58
2021/07/14 01:42:56;;;;;;;;;;;;;;;-144.99;88.46;52203.50;5040555;28;19928;-58
2021/07/14 01:45:26;;;;;;;;;;;;;;;-144.99;88.12;52232.03;5051943;28;19928;-58
2021/07/14 01:47:53;;;;;;;;;;;;;;;-144.99;88.48;52207.59;5051909;28;19928;-58
2021/07/14 01:50:19;;;;;;;;;;;;;;;-144.99;88.62;52232.03;5051836;28;19924;-58
2021/07/14 01:52:45;;;;;;;;;;;;;;;-144.99;88.68;52207.59;5045132;28;20198;-58
2021/07/14 01:55:13;;;;;;;;;;;;;;;-144.99;88.85;52221.84;5035936;28;19921;-58
2021/07/14 01:57:40;;;;;;;;;;;;;;;-144.99;88.56;52199.44;5031694;28;19925;-57
2021/07/14 02:00:08;;;;;;;;;;;;;;;-144.99;88.72;52215.75;5046878;28;20106;-57
2021/07/14 02:02:38;;;;;;;;;;;;;;;-144.99;88.87;52236.13;5042351;28;19975;-58
2021/07/14 02:05:05;;;;;;;;;;;;;;;-144.99;89.05;52240.19;5051738;28;19921;-58
2021/07/14 02:07:33;;;;;;;;;;;;;;;-144.99;89.05;52240.19;5051804;28;20008;-58
2021/07/14 02:09:59;;;;;;;;;;;;;;;-144.99;89.18;52240.19;5051780;28;19925;-58
2021/07/14 02:12:26;;;;;;;;;;;;;;;-144.99;89.09;52232.03;5050871;28;19927;-58
2021/07/14 02:14:55;;;;;;;;;;;;;;;-144.99;89.33;52219.81;5051040;28;19931;-58
2021/07/14 02:17:23;;;;;;;;;;;;;;;-144.99;89.15;52211.66;5051223;28;20181;-63
2021/07/14 02:19:52;;;;;;;;;;;;;;;-144.99;89.21;52207.59;5051370;28;19932;-62
2021/07/14 02:22:19;;;;;;;;;;;;;;;-144.99;89.31;52248.34;5051179;28;19932;-62
2021/07/14 02:24:45;;;;;;;;;;;;;;;-144.99;89.38;52232.03;5049741;28;19927;-62
2021/07/14 02:27:12;;;;;;;;;;;;;;;-144.99;89.67;52207.59;5051095;28;19974;-63
2021/07/14 02:29:39;;;;;;;;;;;;;;;-144.99;89.25;52244.28;5044266;28;19921;-62
2021/07/14 02:32:06;;;;;;;;;;;;;;;-144.99;89.47;52203.50;5046654;28;19920;-62
2021/07/14 02:34:33;;;;;;;;;;;;;;;-144.99;89.25;52219.81;5050591;28;20008;-60
2021/07/14 02:37:03;;;;;;;;;;;;;;;-144.99;89.46;52207.59;5050919;28;19958;-63
2021/07/14 02:39:30;;;;;;;;;;;;;;;-144.99;89.49;52207.59;5052558;28;19924;-64
2021/07/14 02:42:00;;;;;;;;;;;;;;;-144.99;89.26;52248.34;5050999;28;19925;-58
2021/07/14 02:44:27;;;;;;;;;;;;;;;-144.99;89.48;52211.66;5050367;28;19939;-60
2021/07/14 02:46:56;;;;;;;;;;;;;;;-144.99;89.38;52252.44;5050320;28;19920;-60
2021/07/14 02:49:27;;;;;;;;;;;;;;;-144.99;89.49;52211.66;5051172;28;19921;-61
2021/07/14 02:51:54;;;;;;;;;;;;;;;-144.99;89.44;52252.44;5047329;28;19929;-58
2021/07/14 02:54:23;;;;;;;;;;;;;;;-144.99;89.39;52227.97;5031891;28;19921;-58
2021/07/14 02:56:52;;;;;;;;;;;;;;;-144.99;89.28;52221.84;5049544;28;19964;-59
2021/07/14 02:59:20;;;;;;;;;;;;;;;-144.99;89.60;52193.31;5047001;28;20398;-58
2021/07/14 03:01:47;;;;;;;;;;;;;;;-144.99;89.55;52227.97;5042806;28;19920;-56
2021/07/14 03:04:14;;;;;;;;;;;;;;;-144.99;89.40;52234.09;5051067;28;19928;-57
2021/07/14 03:06:40;;;;;;;;;;;;;;;-144.99;89.35;52227.97;5049063;28;19920;-57
2021/07/14 03:09:07;;;;;;;;;;;;;;;-144.99;89.43;52227.97;5051237;28;20198;-58
2021/07/14 03:11:39;;;;;;;;;;;;;;;-144.99;89.52;52223.88;5051677;28;19951;-58
2021/07/14 03:14:06;;;;;;;;;;;;;;;-144.99;89.67;52203.50;5050418;28;19921;-58
2021/07/14 03:16:33;;;;;;;;;;;;;;;-144.99;89.55;52199.44;5049766;28;19920;-59
2021/07/14 03:19:00;;;;;;;;;;;;;;;-144.99;89.53;52223.88;5049777;28;19967;-58
2021/07/14 03:21:28;;;;;;;;;;;;;;;-144.99;89.62;52260.56;5044699;28;19920;-59
2021/07/14 03:23:55;;;;;;;;;;;;;;;-144.99;89.55;52207.59;5050006;28;19932;-60
2021/07/14 03:26:22;;;;;;;;;;;;;;;-144.99;89.69;52223.88;5035005;28;20267;-58
2021/07/14 03:28:49;;;;;;;;;;;;;;;-144.99;89.95;52236.13;5029531;28;19925;-59
2021/07/14 03:31:16;;;;;;;;;;;;;;;-144.99;90.02;52207.59;5030209;28;19931;-59
2021/07/14 03:33:42;;;;;;;;;;;;;;;-144.99;90.06;52258.53;5029904;28;19928;-59
2021/07/14 03:36:09;;;;;;;;;;;;;;;-144.99;90.00;52219.81;5036547;28;19942;-59
2021/07/14 03:38:36;;;;;;;;;;;;;;;-144.99;90.09;52232.03;5030670;28;19921;-58
2021/07/14 03:41:03;;;;;;;;;;;;;;;-144.99;90.14;52240.19;5030194;28;19921;-59
2021/07/14 03:43:30;;;;;;;;;;;;;;;-144.99;90.25;52232.03;5030331;28;19925;-59
2021/07/14 03:45:59;;;;;;;;;;;;;;;-144.99;90.32;52236.13;5031239;28;19928;-59
2021/07/14 03:48:29;;;;;;;;;;;;;;;-144.99;90.59;52207.59;5031432;28;19921;-58
2021/07/14 03:50:56;;;;;;;;;;;;;;;-144.99;90.38;52242.22;5030423;28;19932;-59
2021/07/14 03:53:23;;;;;;;;;;;;;;;-144.99;90.42;52244.28;5040327;28;20404;-61
2021/07/14 03:55:50;;;;;;;;;;;;;;;-144.99;90.66;52240.19;5037230;28;20273;-61
2021/07/14 03:58:17;;;;;;;;;;;;;;;-144.99;90.65;52244.28;5030570;28;19921;-61
2021/07/14 04:00:44;;;;;;;;;;;;;;;-144.99;90.76;52203.50;5045038;28;19921;-59
2021/07/14 04:03:12;;;;;;;;;;;;;;;-144.99;90.86;52232.03;5046031;28;19924;-61
2021/07/14 04:05:39;;;;;;;;;;;;;;;-144.99;90.98;52225.94;5049866;28;19920;-61
2021/07/14 04:08:06;;;;;;;;;;;;;;;-144.99;90.97;52215.75;5042569;28;20039;-60
2021/07/14 04:10:32;;;;;;;;;;;;;;;-144.99;90.93;52219.81;5037876;28;19924;-60
2021/07/14 04:12:58;;;;;;;;;;;;;;;-144.99;91.04;52223.88;5049495;28;19925;-60
2021/07/14 04:15:25;;;;;;;;;;;;;;;-144.99;91.14;52248.34;5049151;28;20367;-60
2021/07/14 04:17:51;;;;;;;;;;;;;;;-144.99;91.14;52244.28;5048223;28;20302;-61
2021/07/14 04:20:19;;;;;;;;;;;;;;;-144.99;91.17;52232.03;5049402;28;19948;-60
2021/07/14 04:22:45;;;;;;;;;;;;;;;-144.99;91.18;52248.34;5049209;28;19921;-60
2021/07/14 04:25:12;;;;;;;;;;;;;;;-144.99;91.29;52215.75;5047319;28;19927;-60
2021/07/14 04:27:38;;;;;;;;;;;;;;;-144.99;91.49;52223.88;5049253;28;20011;-60
2021/07/14 04:30:05;;;;;;;;;;;;;;;-144.99;91.46;52244.28;5037975;28;19928;-60
2021/07/14 04:32:32;;;;;;;;;;;;;;;-144.99;91.45;52244.28;5048460;28;19921;-60
2021/07/14 04:34:58;;;;;;;;;;;;;;;-144.99;91.35;52203.50;5049792;28;19939;-61
2021/07/14 04:37:26;;;;;;;;;;;;;;;-144.99;91.44;52227.97;5049509;28;19927;-60
2021/07/14 04:39:52;;;;;;;;;;;;;;;-144.99;91.57;52256.50;5048446;28;19924;-60
2021/07/14 04:42:18;;;;;;;;;;;;;;;-144.99;91.48;52244.28;5049244;28;19921;-60
2021/07/14 04:44:50;;;;;;;;;;;;;;;-144.99;91.54;52191.28;5048995;28;19920;-61
2021/07/14 04:47:17;;;;;;;;;;;;;;;-144.99;91.65;52240.19;5049050;28;19920;-64
2021/07/14 04:49:43;;;;;;;;;;;;;;;-144.99;91.40;52248.34;5038750;28;19921;-64
2021/07/14 04:52:10;;;;;;;;;;;;;;;-144.99;91.19;52232.03;5032409;28;19928;-63
2021/07/14 04:54:38;;;;;;;;;;;;;;;-144.99;90.69;52246.31;5029746;28;19921;-64
2021/07/14 04:57:05;;;;;;;;;;;;;;;-144.99;90.41;52248.34;5029584;28;19932;-64
2021/07/14 04:59:34;;;;;;;;;;;;;;;-144.99;89.92;52215.75;5037448;28;19928;-65
2021/07/14 05:02:01;;;;;;;;;;;;;;;-144.99;89.96;52207.59;3998135;28;10000578;-64
2021/07/14 05:04:27;;;;;;;;;;;;;;;-144.99;89.93;52232.03;5044720;28;19932;-64
2021/07/14 05:06:53;;;;;;;;;;;;;;;-144.99;90.07;52223.88;5045963;28;19931;-65
2021/07/14 05:09:20;;;;;;;;;;;;;;;-144.99;90.30;52203.50;5045755;28;19932;-64
2021/07/14 05:11:47;;;;;;;;;;;;;;;-144.99;90.24;52207.59;5045212;28;19972;-63
2021/07/14 05:14:14;;;;;;;;;;;;;;;-144.99;90.20;52219.81;5046027;28;19928;-63
2021/07/14 05:16:40;;;;;;;;;;;;;;;-144.99;90.19;52254.47;5045841;28;19920;-64
2021/07/14 05:19:06;;;;;;;;;;;;;;;-144.99;90.48;52221.84;5037548;28;19965;-64
2021/07/14 05:21:33;;;;;;;;;;;;;;;-144.99;90.28;52240.19;5044230;28;19921;-65
2021/07/14 05:23:59;;;;;;;;;;;;;;;-144.99;90.44;52187.19;5047652;28;20224;-64
2021/07/14 05:26:25;;;;;;;;;;;;;;;-144.99;90.48;52254.47;5031807;28;19925;-63
2021/07/14 05:28:54;;;;;;;;;;;;;;;-144.99;90.49;52201.47;5029856;28;19935;-64
2021/07/14 05:31:20;;;;;;;;;;;;;;;-144.99;90.35;52217.78;5035292;28;20315;-63
2021/07/14 05:33:47;;;;;;;;;;;;;;;-144.99;90.23;52236.13;5047571;28;20287;-64
2021/07/14 05:36:13;;;;;;;;;;;;;;;-144.99;90.23;52240.19;5028949;28;19928;-66
2021/07/14 05:38:39;;;;;;;;;;;;;;;-144.99;90.07;52217.78;5029336;28;19921;-64
2021/07/14 05:41:06;;;;;;;;;;;;;;;-144.99;90.04;52191.28;5029962;28;19932;-65
2021/07/14 05:43:32;;;;;;;;;;;;;;;-144.99;90.08;52244.28;5029388;28;19925;-64
2021/07/14 05:46:00;;;;;;;;;;;;;;;-144.99;89.96;52187.19;5028789;28;19932;-65
2021/07/14 05:48:26;;;;;;;;;;;;;;;-144.99;90.15;52219.81;5029065;28;19929;-64
2021/07/14 05:50:53;;;;;;;;;;;;;;;-144.99;89.98;52250.38;5028930;28;20163;-65
2021/07/14 05:53:19;;;;;;;;;;;;;;;-144.99;89.90;52203.50;5036347;28;20139;-65
2021/07/14 05:55:46;;;;;;;;;;;;;;;-144.99;89.97;52195.34;5051603;28;20148;-65
2021/07/14 05:58:12;;;;;;;;;;;;;;;-144.99;90.10;52203.50;5048754;28;19929;-65
2021/07/14 06:00:38;;;;;;;;;;;;;;;-144.99;89.69;52203.50;5037959;28;19921;-64
2021/07/14 06:03:06;;;;;;;;;;;;;;;-144.99;89.98;52211.66;5041005;28;19927;-64
2021/07/14 06:05:33;;;;;;;;;;;;;;;-144.99;89.77;52177.00;5034741;28;19924;-65
2021/07/14 06:07:59;;;;;;;;;;;;;;;-144.99;89.79;52232.03;5048846;28;19928;-64
2021/07/14 06:10:25;;;;;;;;;;;;;;;-144.99;90.07;52232.03;5048359;28;19920;-64
2021/07/14 06:12:56;;;;;;;;;;;;;;;-144.99;89.76;52230.00;5048382;28;19925;-65
2021/07/14 06:15:23;;;;;;;;;;;;;;;-144.99;89.86;52219.81;5046055;28;19940;-65
2021/07/14 06:17:49;;;;;;;;;;;;;;;-144.99;89.55;52199.44;5048164;28;19925;-63
2021/07/14 06:20:17;;;;;;;;;;;;;;;-144.99;89.76;52203.50;5047943;28;19921;-63
2021/07/14 06:22:43;;;;;;;;;;;;;;;-144.99;89.72;52174.97;5047928;28;19924;-63
2021/07/14 06:25:12;;;;;;;;;;;;;;;-144.99;89.44;52189.25;5041023;28;19920;-63
2021/07/14 06:27:38;;;;;;;;;;;;;;;-144.99;89.11;52183.13;5027758;28;19924;-65
2021/07/14 06:30:09;;;;;;;;;;;;;;;-144.99;89.32;52183.13;5033027;28;19925;-64
2021/07/14 06:32:35;;;;;;;;;;;;;;;-144.99;89.40;52187.19;5035869;28;19968;-64
2021/07/14 06:35:01;;;;;;;;;;;;;;;-144.99;89.39;52191.28;5027982;28;19931;-65
2021/07/14 06:37:29;;;;;;;;;;;;;;;-144.99;89.71;52207.59;5037106;28;19932;-64
2021/07/14 06:39:55;;;;;;;;;;;;;;;-144.99;89.91;52236.13;5028029;28;19947;-65
2021/07/14 06:42:22;;;;;;;;;;;;;;;-144.99;89.98;52211.66;5027890;28;20299;-64
2021/07/14 06:44:48;;;;;;;;;;;;;;;-144.99;90.37;52211.66;5028154;28;19932;-67
2021/07/14 06:47:14;;;;;;;;;;;;;;;-144.99;90.32;52227.97;5040608;28;19925;-66
2021/07/14 06:49:41;;;;;;;;;;;;;;;-144.99;90.25;52211.66;5047311;28;19925;-66
2021/07/14 06:52:08;;;;;;;;;;;;;;;-144.99;90.32;52219.81;5071649;22;20441;-66
2021/07/14 06:54:38;;;;;;;;;;;;;;;-144.99;90.58;52207.59;5087510;28;19923;-65
2021/07/14 06:57:05;;;;;;;;;;;;;;;-144.99;90.84;52199.44;5088422;28;19926;-65
2021/07/14 06:59:31;;;;;;;;;;;;;;;-144.99;90.91;52215.75;5087757;28;19927;-64
2021/07/14 07:02:01;;;;;;;;;;;;;;;-144.99;90.98;52189.25;5085525;28;20078;-64
2021/07/14 07:04:27;;;;;;;;;;;;;;;-144.99;91.43;52225.94;5088186;28;19934;-65
2021/07/14 07:06:54;;;;;;;;;;;;;;;-144.99;91.93;52195.34;5074907;28;19927;-64
2021/07/14 07:09:20;;;;;;;;;;;;;;;-144.99;92.12;52191.28;5081264;28;19920;-64
2021/07/14 07:11:48;;;;;;;;;;;;;;;-144.99;92.50;52207.59;5087763;28;19920;-64
2021/07/14 07:14:14;;;;;;;;;;;;;;;-144.99;92.92;52236.13;5087928;28;19923;-64
2021/07/14 07:16:40;;;;;;;;;;;;;;;-144.99;93.12;52203.50;5079365;28;19921;-64
2021/07/14 07:19:07;;;;;;;;;;;;;;;-144.99;93.36;52215.75;5084818;28;19955;-64
2021/07/14 07:21:33;;;;;;;;;;;;;;;-144.99;93.74;52179.06;5082520;28;19942;-64
2021/07/14 07:24:00;;;;;;;;;;;;;;;-144.99;93.92;52232.03;5087537;28;19928;-64
2021/07/14 07:26:27;;;;;;;;;;;;;;;-144.99;94.11;52232.03;5086553;28;19931;-63
2021/07/14 07:29:00;;;;;;;;;;;;;;;-144.99;94.27;52236.13;5087258;28;19924;-62
2021/07/14 07:31:27;;;;;;;;;;;;;;;-144.99;94.57;52207.59;5087488;28;19935;-65
2021/07/14 07:33:53;;;;;;;;;;;;;;;-144.99;94.81;52227.97;5086919;28;20443;-62
2021/07/14 07:36:20;;;;;;;;;;;;;;;-144.99;95.15;52236.13;5084114;28;19929;-63
2021/07/14 07:38:46;;;;;;;;;;;;;;;-144.99;95.49;52236.13;5081931;28;19920;-63
2021/07/14 07:41:13;;;;;;;;;;;;;;;-144.99;95.74;52232.03;5087412;28;20538;-63
2021/07/14 07:43:40;;;;;;;;;;;;;;;-144.99;95.92;52252.44;5086893;28;19981;-64
2021/07/14 07:46:09;;;;;;;;;;;;;;;-144.99;96.14;52217.78;5087304;28;19931;-63
2021/07/14 07:48:35;;;;;;;;;;;;;;;-144.99;96.47;52232.03;5083849;28;19930;-64
2021/07/14 07:51:02;;;;;;;;;;;;;;;-144.99;96.57;52223.88;5086816;28;20375;-64
2021/07/14 07:53:28;;;;;;;;;;;;;;;-144.99;96.75;52205.53;5083393;28;19927;-64
2021/07/14 07:55:55;;;;;;;;;;;;;;;-144.99;96.80;52183.13;5084003;28;19920;-64
2021/07/14 07:58:22;;;;;;;;;;;;;;;-144.99;96.57;52174.97;5076406;28;19920;-65
2021/07/14 08:00:48;;;;;;;;;;;;;;;-144.99;96.14;52162.75;5081538;28;19947;-65
2021/07/14 08:03:16;;;;;;;;;;;;;;;-144.99;95.25;52187.19;5083493;28;20093;-65
2021/07/14 08:05:43;;;;;;;;;;;;;;;-144.99;94.94;52187.19;5087109;28;19924;-63
2021/07/14 08:08:09;;;;;;;;;;;;;;;-144.99;94.43;52183.13;5080365;28;19974;-64
2021/07/14 08:10:35;;;;;;;;;;;;;;;-144.99;94.50;52199.44;5086532;28;19947;-64
2021/07/14 08:13:03;;;;;;;;;;;;;;;-144.99;94.48;52183.13;5086544;28;19924;-64
2021/07/14 08:15:29;;;;;;;;;;;;;;;-144.99;94.89;52187.19;5086714;28;19993;-65
2021/07/14 08:17:55;;;;;;;;;;;;;;;-144.99;95.20;52187.19;5083747;28;19931;-64
2021/07/14 08:20:23;;;;;;;;;;;;;;;-144.99;95.39;52195.34;5080420;28;19936;-64
2021/07/14 08:22:50;;;;;;;;;;;;;;;-144.99;95.09;52189.25;5086838;28;19924;-64
2021/07/14 08:25:17;;;;;;;;;;;;;;;-144.99;95.04;52211.66;5084599;28;20063;-65
2021/07/14 08:27:44;;;;;;;;;;;;;;;-144.99;95.31;52170.91;5086616;28;19954;-65
2021/07/14 08:30:11;;;;;;;;;;;;;;;-144.99;95.30;52199.44;5086428;28;19946;-65
2021/07/14 08:32:38;;;;;;;;;;;;;;;-144.99;95.74;52207.59;5083691;28;20393;-66
2021/07/14 08:35:05;;;;;;;;;;;;;;;-144.99;95.35;52211.66;5080867;28;19924;-65
2021/07/14 08:37:33;;;;;;;;;;;;;;;-144.99;95.27;52205.53;5084727;28;19920;-65
2021/07/14 08:40:00;;;;;;;;;;;;;;;-144.99;95.26;52207.59;5086333;28;19958;-65
2021/07/14 08:42:26;;;;;;;;;;;;;;;-144.99;95.33;52195.34;5086411;28;19924;-65
2021/07/14 08:44:54;;;;;;;;;;;;;;;-144.99;94.87;52195.34;5085337;28;19931;-65
2021/07/14 08:47:21;;;;;;;;;;;;;;;-144.99;94.54;52217.78;5085313;28;19927;-63
2021/07/14 08:49:48;;;;;;;;;;;;;;;-144.99;94.41;52187.19;5086637;28;20293;-65
2021/07/14 08:52:15;;;;;;;;;;;;;;;-144.99;94.06;52199.44;5085982;28;20388;-65
2021/07/14 08:54:43;;;;;;;;;;;;;;;-144.99;93.76;52195.34;5086155;28;19967;-65
2021/07/14 08:57:09;;;;;;;;;;;;;;;-144.99;93.76;52156.63;5084549;28;20301;-66
2021/07/14 08:59:36;;;;;;;;;;;;;;;-144.99;93.49;52211.66;5089480;28;19924;-65
2021/07/14 09:02:02;;;;;;;;;;;;;;;-144.99;93.38;52172.94;5081898;28;19920;-65
2021/07/14 09:04:29;;;;;;;;;;;;;;;-144.99;93.19;52189.25;5089796;28;20312;-65
2021/07/14 09:06:55;;;;;;;;;;;;;;;-144.99;93.38;52211.66;5088534;28;19947;-65
2021/07/14 09:09:23;;;;;;;;;;;;;;;-144.99;93.17;52203.50;5089904;28;19936;-65
2021/07/14 09:11:52;;;;;;;;;;;;;;;-144.99;92.32;52181.09;5090455;28;19927;-65
2021/07/14 09:14:26;;;;;;;;;;;;;;;-144.99;92.00;52183.13;5090040;28;19943;-65
2021/07/14 09:16:52;;;;;;;;;;;;;;;-144.99;91.11;52172.94;5085141;28;19924;-63
2021/07/14 09:19:22;;;;;;;;;;;;;;;-144.99;89.70;52150.53;5078574;28;20321;-65
2021/07/14 09:21:49;;;;;;;;;;;;;;;-144.99;86.94;52138.28;5090441;28;19924;-66
2021/07/14 09:24:25;;;;;;;;;;;;;;;-144.99;85.95;52121.97;5089693;28;19927;-65
2021/07/14 09:26:53;;;;;;;;;;;;;;;-144.99;84.04;52166.81;5078502;28;19920;-65
2021/07/14 09:29:19;;;;;;;;;;;;;;;-144.99;83.39;52154.59;5088176;28;20253;-63
2021/07/14 09:31:46;;;;;;;;;;;;;;;-144.99;82.83;52146.44;5090138;28;19968;-65
2021/07/14 09:34:21;;;;;;;;;;;;;;;-144.99;82.11;52130.13;5089759;28;19931;-65
2021/07/14 09:36:48;;;;;;;;;;;;;;;-144.99;81.65;52097.53;5088008;28;19924;-65
2021/07/14 09:39:14;;;;;;;;;;;;;;;-144.99;79.35;52138.28;5089613;28;19963;-66
2021/07/14 09:41:42;;;;;;;;;;;;;;;-144.99;76.40;52166.81;5089850;28;19923;-65
2021/07/14 09:44:19;;;;;;;;;;;;;;;-144.99;76.43;52113.84;5089812;28;19926;-65
2021/07/14 09:47:04;;;;;;;;;;;;;;;-144.99;75.89;52134.22;5090048;28;19931;-65
2021/07/14 09:49:35;;;;;;;;;;;;;;;-144.99;74.87;52121.97;5079189;28;19931;-65
2021/07/14 09:52:05;;;;;;;;;;;;;;;-144.99;74.88;52121.97;5089052;28;20009;-64
2021/07/14 09:54:31;;;;;;;;;;;;;;;-144.99;74.63;52105.69;5081798;28;20006;-65
2021/07/14 09:57:07;;;;;;;;;;;;;;;-144.99;73.64;52107.72;5089347;28;19920;-65
2021/07/14 09:59:34;;;;;;;;;;;;;;;-144.99;71.26;52085.31;5082403;28;19934;-65
2021/07/14 10:02:01;;;;;;;;;;;;;;;-144.99;70.73;52113.84;5080753;28;19928;-65
2021/07/14 10:04:30;;;;;;;;;;;;;;;-144.99;69.36;52048.63;5089053;28;19931;-65
2021/07/14 10:07:04;;;;;;;;;;;;;;;-144.99;68.54;52046.56;5088863;28;20385;-65
2021/07/14 10:09:30;;;;;;;;;;;;;;;-144.99;65.34;52056.78;5086531;28;19919;-66
2021/07/14 10:12:17;;;;;;;;;;;;;;;-144.99;62.40;52028.22;5089080;28;19931;-63
2021/07/14 10:14:45;;;;;;;;;;;;;;;-144.99;60.69;52052.69;5089099;28;19931;-64
2021/07/14 10:17:11;;;;;;;;;;;;;;;-144.99;60.84;52001.75;5089259;28;19947;-63
2021/07/14 10:19:38;;;;;;;;;;;;;;;-144.99;60.28;52024.16;5078928;28;19985;-65
2021/07/14 10:22:05;;;;;;;59.60;53.83;;;;;;;-144.99;60.29;52044.53;5088097;28;19924;-64
2021/07/14 10:24:32;;;;;;;;;;;;;;;-144.99;60.53;52042.50;5089506;28;20234;-64
2021/07/14 10:26:59;;;;;;;;;;;;;;;-144.99;60.46;52040.47;5089490;28;19924;-63
2021/07/14 10:29:26;;;;;;;;;;;;;;;-144.99;61.10;52073.06;5085170;28;19955;-64
2021/07/14 10:31:54;;;;;;;;;;;;;;;-144.99;60.91;52073.06;5082628;28;20443;-63
2021/07/14 10:34:22;;;;;;;65.57;58.67;;;;;;;-144.99;61.39;52089.38;5087541;28;24488;-65
2021/07/14 10:36:52;;;;;;;60.72;54.75;;;;;;;-144.99;61.05;52081.22;5088262;28;20229;-64
2021/07/14 10:39:18;;;;;;;;;;;;;;;-144.99;61.30;52111.78;5070566;28;20239;-64
2021/07/14 10:41:45;;;;;;;;;;;;;;;-144.99;61.34;52077.16;5083574;28;20456;-64
2021/07/14 10:44:14;;;;;;;;;;;;;;;-144.99;62.18;52113.84;5088636;28;19970;-64
2021/07/14 10:46:40;;;;;;;;;;;;;;;-144.99;62.90;52093.44;5088433;28;19965;-62
2021/07/14 10:49:09;;;;;;;;;;;;;;;-144.99;63.56;52109.75;5088077;28;19920;-65
2021/07/14 10:51:36;;;;;;;;;;;;;;;-144.99;64.11;52077.16;5085801;28;20031;-66
2021/07/14 10:54:04;;;;;;;;;;;;;;;-144.99;64.17;52105.69;5088659;28;20554;-65
2021/07/14 10:56:31;;;;;;;;;;;;;;;-144.99;64.06;52105.69;5088892;28;19924;-65
2021/07/14 10:58:58;;;;;;;;;;;;;;;-144.99;63.66;52093.44;5087905;28;19946;-63
2021/07/14 11:01:41;;;;;;;;;;;;;;;-144.99;63.73;52093.44;5080642;28;19947;-63
2021/07/14 11:04:12;;;;;;;;;;;;;;;-144.99;63.53;52089.38;5082261;28;20231;-62
2021/07/14 11:06:53;;;;;;;;;;;;;;;-144.99;62.68;52101.59;5088026;28;20373;-64
2021/07/14 11:09:30;;;;;;;;;;;;;;;-144.99;63.21;52117.91;5087747;28;19943;-64
2021/07/14 11:11:57;;;;;;;;;;;;;;;-144.99;63.69;52130.13;5088028;28;20015;-64
2021/07/14 11:14:33;;;;;;;;;;;;;;;-144.99;63.78;52093.44;5086918;28;19924;-64
2021/07/14 11:17:00;;;;;;;;;;;;;;;-144.99;63.73;52079.19;5087600;28;20161;-64
2021/07/14 11:19:43;;;;;;;;;;;;;;;-144.99;62.73;52040.47;5083734;28;19932;-64
2021/07/14 11:22:09;;;;;;;;;;;;;;;-144.99;59.92;52022.13;5083331;28;19977;-64
2021/07/14 11:24:53;;;;;;;;;;;;;;;-144.99;59.62;52077.16;5080470;28;20320;-64
2021/07/14 11:27:53;;;;;;;;;;;;;;;-144.99;58.30;52044.53;5086757;28;19977;-64
2021/07/14 11:30:34;;;;;;;;;;;;;;;-144.99;57.30;52060.84;5087326;28;19920;-64
2021/07/14 11:33:01;;;;;;;;;;;;;;;-144.99;56.45;52024.16;5084362;28;20474;-64
2021/07/14 11:35:37;;;;;;;;;;;;;;;-144.99;55.17;51991.56;5086682;28;20362;-64
2021/07/14 11:38:04;;;;;;;;;;;;;;;-144.99;55.28;52040.47;5087486;28;19920;-64
2021/07/14 11:40:41;;;;;;;;;;;;;;;-144.99;54.84;51979.31;5087302;28;20019;-65
2021/07/14 11:43:15;;;;;;;;;;;;;;;-144.99;53.96;52007.84;5086856;28;20026;-64
2021/07/14 11:45:42;;;;;;;;;;;;;;;-144.99;53.31;51942.63;5078693;28;19943;-65
2021/07/14 11:48:10;;;;;;;;;;;;;;;-144.99;52.37;51987.47;5086898;28;20018;-65
2021/07/14 11:50:48;;;;;;;;;;;;;;;-144.99;51.10;51950.78;5086643;28;19920;-64
2021/07/14 11:53:30;;;;;;;;;;;;;;;-144.99;51.38;51948.75;5079650;28;20374;-64
2021/07/14 11:55:57;;;;;;;;;;;;;;;-144.99;50.82;51934.50;5078657;28;20653;-65
2021/07/14 11:58:38;;;;;;;;;;;;;;;-144.99;50.52;51934.50;5084815;28;19931;-64
2021/07/14 12:01:08;;;;;;;;;;;;;;;-144.99;49.93;51967.09;5079408;28;19932;-65
2021/07/14 12:03:34;;;;;;;;;;;;;;;-144.99;49.35;51918.19;5086113;28;19927;-63
2021/07/14 12:06:04;;;;;;;;;;;;;;;-144.99;49.14;51910.03;5085882;28;19920;-63
2021/07/14 12:08:37;;;;;;;;;;;;;;;-144.99;48.77;51967.09;5085445;28;19924;-65
2021/07/14 12:11:03;;;;;;;;;;;;;;;-144.99;49.53;51956.91;5086684;28;19924;-64
2021/07/14 12:13:30;;;;;;;;;;;;;;;-144.99;49.36;51979.31;5085807;28;20020;-64
2021/07/14 12:15:56;;;;;;;;;;;;;;;-144.99;49.60;52016.00;5079558;28;19924;-64
2021/07/14 12:18:22;;;;;;;;;;;;;;;-144.99;50.02;51963.03;5085394;28;19928;-63
2021/07/14 12:20:50;;;;;;;;;;;;;;;-144.99;49.93;51983.41;5085526;28;19923;-64
2021/07/14 12:23:18;;;;;;;;;;;;;;;-144.99;50.35;52003.78;5086727;28;19931;-63
2021/07/14 12:25:45;;;;;;;;;;;;;;;-144.99;50.58;51971.16;5085605;28;20024;-63
2021/07/14 12:28:12;;;;;;;;;;;;;;;-144.99;50.54;51983.41;5082729;28;19951;-65
2021/07/14 12:30:40;;;;;;;;;;;;;;;-144.99;50.55;52001.75;5085584;28;19920;-64
2021/07/14 12:33:08;;;;;;;;;;;;;;;-144.99;49.41;51956.91;5080538;28;19923;-63
2021/07/14 12:35:35;;;;;;;;;;;;;;;-144.99;49.14;51934.50;5090187;28;19924;-64
2021/07/14 12:38:04;;;;;;;;;;;;;;;-144.99;48.58;51954.88;5088482;28;20019;-65